Portada
METAR-TAF:

METAR-TAF

Aeropuertos :

Yüksekova, Turquía

latitud: 37-33-06N, longitud: 44-14-01E, altitud: 1950 m

Observación

El informe se hizo hace 9 horas y 53 minutos, a las 12:50 UTC
Viento 12 kt del este-noreste
Temperatura -5°C
Humedad 93%
Presión 1013 hPa
Visibilidad: 2000 m
Nubes dispersas a una altura de 1000 ft
Cielo cubierto a una altura de 3000 ft
niebla en bancos

METAR: LTCW 241250Z 06012KT 2000 R11/0900N R29/P1500N BCFG SCT010 OVC030 M05/M06 Q1013 RESN

Hora: 01:43 (22:43 UTC)

Pronóstico

El informe se hizo hace 3 horas y 3 minutos, a las 19:40 UTC
Pronóstico válido del 24 a las 21 UTC al 25 a las 06 UTC
Viento 8 kt del oeste-noroeste
Visibilidad: 1400 m
Nubes dispersas a una altura de 1000 ft
Nubes dispersas a una altura de 3000 ft
neblina

TAF: LTCW 241940Z 2421/2506 30008KT 1400 BR SCT010 SCT030

Observaciones y pronósticos meteorológicos de más de 4000 aeropuertos (mensajes METAR y TAF).

Los puntos amarillos y rojos representan las estaciones disponibles.

Ponga el ratón en el punto deseado para ver el nombre de la estación.

Haga clic para ver las observaciones y los pronósticos meteorológicos.

Para cambiar el mapa : haga clic en los botones verdes con una cruz de color negro para hacer un zoom, en el botón verde con un guión para alejar o en las flechas verdes para mapas adyacentes.


METAR-TAF: